Time;durP1;ratioP1;P1;durP2;ratioP2;P2;SDS_P1;SDS_P2;PMS_P1;PMS_P2;Temp;Humidity;BMP_temperature;BMP_pressure;BME280_temperature;BME280_humidity;BME280_pressure;Samples;Min_cycle;Max_cycle;Signal;HPM_P1;HPM_P2
2021/01/25 00:01:07;;;;;;;54.93;27.40;;;;;;;-0.28;77.17;97093.81;2161188;82;21285;-79
2021/01/25 00:04:08;;;;;;;47.67;26.67;;;;;;;-0.23;77.25;97092.65;2160984;82;21138;-78
2021/01/25 00:07:09;;;;;;;48.37;25.87;;;;;;;-0.21;77.32;97094.84;2161213;82;21568;-79
2021/01/25 00:10:10;;;;;;;51.80;26.47;;;;;;;-0.17;77.36;97100.50;2161126;82;21146;-79
2021/01/25 00:13:11;;;;;;;54.30;26.20;;;;;;;-0.13;77.44;97097.19;2161146;82;21151;-79
2021/01/25 00:16:12;;;;;;;53.57;24.80;;;;;;;-0.10;77.36;97099.83;2161296;82;21277;-78
2021/01/25 00:19:14;;;;;;;53.30;25.50;;;;;;;-0.08;77.44;97098.17;2160987;82;21554;-80
2021/01/25 00:22:15;;;;;;;47.27;25.50;;;;;;;-0.04;77.46;97105.11;2160981;82;21134;-79
2021/01/25 00:25:17;;;;;;;50.90;25.53;;;;;;;-0.01;77.50;97113.75;2160751;82;21147;-78
2021/01/25 00:28:19;;;;;;;48.07;25.37;;;;;;;0.02;77.45;97107.86;2161150;82;21158;-78
2021/01/25 00:31:20;;;;;;;47.07;25.50;;;;;;;0.07;77.49;97115.67;2161082;82;21126;-79
2021/01/25 00:34:23;;;;;;;53.17;26.63;;;;;;;0.09;77.47;97115.30;2161390;82;21493;-79
2021/01/25 00:37:24;;;;;;;49.00;27.17;;;;;;;0.11;77.46;97113.63;2161338;82;21250;-79
2021/01/25 00:40:25;;;;;;;52.77;28.00;;;;;;;0.15;77.43;97111.18;2161181;82;21420;-79
2021/01/25 00:43:26;;;;;;;55.80;28.57;;;;;;;0.16;77.38;97110.77;2161295;82;21131;-79
2021/01/25 00:46:28;;;;;;;51.60;26.50;;;;;;;0.20;77.38;97107.45;2161003;82;21182;-78
2021/01/25 00:49:29;;;;;;;49.60;28.23;;;;;;;0.25;77.33;97110.98;2161256;82;21261;-79
2021/01/25 00:52:30;;;;;;;52.70;27.53;;;;;;;0.26;77.17;97106.31;2161186;82;21138;-78
2021/01/25 00:55:32;;;;;;;56.30;27.40;;;;;;;0.27;77.22;97109.33;2161328;82;21564;-80
2021/01/25 00:58:33;;;;;;;53.40;26.70;;;;;;;0.29;77.16;97103.81;2161463;82;21307;-80
2021/01/25 01:01:34;;;;;;;56.87;27.97;;;;;;;0.29;77.05;97099.97;2151564;83;21339;-79
2021/01/25 01:04:35;;;;;;;51.27;27.07;;;;;;;0.29;77.13;97103.40;2167481;82;21473;-78
2021/01/25 01:07:36;;;;;;;48.67;25.90;;;;;;;0.29;77.16;97099.97;2167750;82;21154;-78
2021/01/25 01:10:37;;;;;;;51.47;28.07;;;;;;;0.30;77.31;97102.57;2167649;82;21204;-80
2021/01/25 01:13:38;;;;;;;50.17;27.20;;;;;;;0.31;77.30;97106.00;2167554;82;21142;-78
2021/01/25 01:16:39;;;;;;;51.70;27.57;;;;;;;0.31;77.27;97104.30;2167676;82;21150;-81
2021/01/25 01:19:44;;;;;;;49.07;24.80;;;;;;;0.35;77.28;97103.96;2167744;82;21142;-79
2021/01/25 01:22:45;;;;;;;50.85;26.52;;;;;;;0.34;77.13;97097.51;2168241;82;21138;-79
2021/01/25 01:25:49;;;;;;;52.33;24.90;;;;;;;0.36;77.24;97099.28;2167406;82;21149;-78
2021/01/25 01:28:50;;;;;;;49.73;25.27;;;;;;;0.38;77.11;97089.05;2150038;82;21127;-78
2021/01/25 01:31:51;;;;;;;49.20;25.33;;;;;;;0.38;77.12;97085.20;2149912;82;21136;-79
2021/01/25 01:34:52;;;;;;;47.83;24.70;;;;;;;0.40;77.13;97089.53;2150069;82;21381;-79
2021/01/25 01:37:56;;;;;;;54.70;25.13;;;;;;;0.42;77.09;97090.85;2150140;82;21134;-79
2021/01/25 01:40:57;;;;;;;51.07;25.10;;;;;;;0.42;77.00;97092.14;2150117;82;21488;-80
2021/01/25 01:44:01;;;;;;;49.60;25.37;;;;;;;0.40;76.96;97092.10;2150031;82;21115;-78
2021/01/25 01:47:02;;;;;;;53.40;25.77;;;;;;;0.41;76.74;97091.27;2150166;83;21409;-78
2021/01/25 01:50:03;;;;;;;50.43;25.90;;;;;;;0.39;76.92;97091.66;2149966;82;21123;-79
2021/01/25 01:53:04;;;;;;;45.30;25.13;;;;;;;0.42;76.93;97093.01;2150021;82;21092;-79
2021/01/25 01:56:05;;;;;;;47.87;24.70;;;;;;;0.42;76.98;97085.30;2152700;82;21179;-78
2021/01/25 01:59:07;;;;;;;48.47;24.30;;;;;;;0.44;76.95;97082.77;2156257;82;21139;-79
2021/01/25 02:02:08;;;;;;;49.30;25.53;;;;;;;0.44;76.84;97085.34;2156562;83;21118;-79
2021/01/25 02:05:09;;;;;;;48.37;25.80;;;;;;;0.43;76.81;97084.47;2155748;82;21479;-79
2021/01/25 02:08:13;;;;;;;44.40;25.80;;;;;;;0.40;76.81;97079.27;2155704;82;21405;-79
2021/01/25 02:11:14;;;;;;;51.57;26.60;;;;;;;0.42;76.78;97072.89;2156000;82;21122;-79
2021/01/25 02:14:15;;;;;;;49.10;26.27;;;;;;;0.40;76.80;97071.56;2155953;82;21437;-79
2021/01/25 02:17:18;;;;;;;48.50;26.33;;;;;;;0.42;76.76;97075.04;2155882;82;21127;-78
2021/01/25 02:20:19;;;;;;;49.47;25.73;;;;;;;0.41;76.65;97074.59;2155833;82;21103;-78
2021/01/25 02:23:20;;;;;;;50.83;25.90;;;;;;;0.40;76.64;97079.69;2155930;82;21122;-79
2021/01/25 02:26:21;;;;;;;45.47;24.40;;;;;;;0.39;76.76;97083.95;2155906;82;21166;-80
2021/01/25 02:29:25;;;;;;;46.20;24.83;;;;;;;0.38;76.65;97077.50;2156225;82;21286;-78
2021/01/25 02:32:26;;;;;;;49.30;25.72;;;;;;;0.37;76.67;97080.48;2155994;83;21124;-79
2021/01/25 02:35:27;;;;;;;53.63;26.77;;;;;;;0.37;76.75;97082.18;2155939;82;21432;-78
2021/01/25 02:38:29;;;;;;;52.93;25.73;;;;;;;0.40;76.77;97077.12;2155885;82;21130;-78
2021/01/25 02:41:30;;;;;;;41.73;24.53;;;;;;;0.41;76.66;97082.28;2155789;82;21138;-79
2021/01/25 02:44:31;;;;;;;49.63;26.07;;;;;;;0.47;76.87;97082.42;2156099;82;21297;-80
2021/01/25 02:47:35;;;;;;;52.53;27.27;;;;;;;0.48;76.60;97082.87;2156095;83;21249;-80
2021/01/25 02:50:37;;;;;;;59.03;28.20;;;;;;;0.47;76.55;97085.41;2156343;82;21245;-79
2021/01/25 02:53:38;;;;;;;48.83;26.80;;;;;;;0.47;76.67;97088.84;2155909;82;21143;-80
2021/01/25 02:56:39;;;;;;;52.07;27.77;;;;;;;0.46;76.57;97085.83;2156491;82;21281;-79
2021/01/25 02:59:40;;;;;;;55.73;27.60;;;;;;;0.45;76.36;97085.79;2158650;82;21237;-79
2021/01/25 03:02:44;;;;;;;51.60;26.53;;;;;;;0.45;76.35;97096.06;2158628;82;21527;-77
2021/01/25 03:05:45;;;;;;;48.33;26.77;;;;;;;0.42;76.43;97100.70;2158735;82;21591;-80
2021/01/25 03:08:48;;;;;;;54.87;28.67;;;;;;;0.41;76.55;97102.82;2158516;82;21520;-79
2021/01/25 03:11:49;;;;;;;56.47;27.83;;;;;;;0.43;76.60;97102.86;2158559;82;21526;-80
2021/01/25 03:14:51;;;;;;;48.20;26.00;;;;;;;0.43;76.56;97110.14;2158541;82;21237;-81
2021/01/25 03:17:52;;;;;;;54.57;27.50;;;;;;;0.45;76.61;97117.46;2158689;82;21413;-81
2021/01/25 03:20:53;;;;;;;51.60;27.23;;;;;;;0.45;76.65;97114.89;2158644;82;21528;-79
2021/01/25 03:23:54;;;;;;;51.37;26.60;;;;;;;0.43;76.56;97115.28;2158552;82;21254;-79
2021/01/25 03:26:55;;;;;;;52.20;25.00;;;;;;;0.44;76.61;97116.14;2158457;82;21386;-79
2021/01/25 03:29:56;;;;;;;51.43;27.00;;;;;;;0.43;76.52;97113.13;2158534;82;21498;-79
2021/01/25 03:32:57;;;;;;;53.97;27.13;;;;;;;0.43;76.51;97110.14;2158466;82;21121;-78
2021/01/25 03:35:58;;;;;;;50.80;27.30;;;;;;;0.43;76.44;97110.14;2158398;82;21242;-78
2021/01/25 03:38:59;;;;;;;50.93;26.80;;;;;;;0.41;76.33;97113.50;2158551;82;21365;-80
2021/01/25 03:42:00;;;;;;;49.27;25.00;;;;;;;0.37;76.35;97115.13;2158683;82;21520;-79
2021/01/25 03:45:01;;;;;;;50.80;26.43;;;;;;;0.34;76.33;97113.77;2158566;82;21273;-79
2021/01/25 03:48:02;;;;;;;54.53;25.87;;;;;;;0.33;76.36;97115.02;2158348;82;21269;-79
2021/01/25 03:51:03;;;;;;;50.40;26.83;;;;;;;0.33;76.40;97112.45;2158475;82;21255;-79
2021/01/25 03:54:04;;;;;;;49.93;26.63;;;;;;;0.31;76.24;97114.98;2158388;82;21249;-79
2021/01/25 03:57:05;;;;;;;48.83;26.17;;;;;;;0.30;76.40;97114.12;2152900;82;21444;-79
2021/01/25 04:00:06;;;;;;;54.17;26.10;;;;;;;0.29;76.32;97115.36;2150310;82;21131;-81
2021/01/25 04:03:08;;;;;;;57.13;27.57;;;;;;;0.28;76.40;97116.20;2150274;83;21121;-79
2021/01/25 04:06:09;;;;;;;50.30;26.13;;;;;;;0.28;76.50;97117.06;2149687;82;21445;-79
2021/01/25 04:09:10;;;;;;;51.60;28.20;;;;;;;0.28;76.46;97114.91;2149314;82;21143;-79
2021/01/25 04:12:11;;;;;;;53.47;26.90;;;;;;;0.29;76.49;97116.65;2149715;82;21146;-79
2021/01/25 04:15:12;;;;;;;62.07;28.10;;;;;;;0.31;76.40;97118.42;2149793;82;21139;-79
2021/01/25 04:18:13;;;;;;;59.57;27.27;;;;;;;0.31;76.30;97114.57;2149826;82;21268;-79
2021/01/25 04:21:14;;;;;;;52.70;26.37;;;;;;;0.30;76.20;97115.81;2150225;82;21401;-80
2021/01/25 04:24:15;;;;;;;51.40;26.60;;;;;;;0.31;76.24;97117.55;2149982;82;21134;-79
2021/01/25 04:27:16;;;;;;;51.87;26.73;;;;;;;0.26;76.15;97118.72;2149900;82;21138;-79
2021/01/25 04:30:17;;;;;;;52.77;29.00;;;;;;;0.26;76.22;97116.58;2149752;82;21127;-78
2021/01/25 04:33:18;;;;;;;61.30;30.63;;;;;;;0.27;76.37;97104.20;2149461;82;21135;-78
2021/01/25 04:36:21;;;;;;;52.27;28.30;;;;;;;0.31;76.37;97106.00;2149332;82;21091;-79
2021/01/25 04:39:22;;;;;;;58.10;29.80;;;;;;;0.30;76.12;97109.40;2149024;82;21135;-79
2021/01/25 04:42:23;;;;;;;55.60;28.60;;;;;;;0.30;76.15;97104.27;2148271;83;21135;-78
2021/01/25 04:45:24;;;;;;;60.70;30.43;;;;;;;0.26;76.04;97105.02;2147391;83;21170;-80
2021/01/25 04:48:25;;;;;;;63.93;31.70;;;;;;;0.26;76.05;97105.02;2147541;82;21150;-78
2021/01/25 04:51:27;;;;;;;67.23;32.63;;;;;;;0.29;76.21;97102.53;2146545;82;21245;-78
2021/01/25 04:54:28;;;;;;;66.83;32.60;;;;;;;0.31;76.08;97103.02;2146399;82;21166;-80
2021/01/25 04:57:31;;;;;;;79.57;34.47;;;;;;;0.36;76.06;97103.55;2149533;82;21938;-80
2021/01/25 05:00:32;;;;;;;75.43;34.87;;;;;;;0.37;76.02;97101.02;2151532;83;21261;-80
2021/01/25 05:03:33;;;;;;;78.27;35.17;;;;;;;0.38;75.82;97101.47;2151997;82;21131;-79
2021/01/25 05:06:34;;;;;;;86.40;40.93;;;;;;;0.40;75.70;97099.80;2152897;82;22040;-79
2021/01/25 05:09:35;;;;;;;98.03;42.37;;;;;;;0.38;75.61;97091.20;2153331;82;21441;-80
2021/01/25 05:12:36;;;;;;;91.73;40.13;;;;;;;0.40;75.66;97094.67;2153946;82;21150;-78
2021/01/25 05:15:37;;;;;;;95.20;43.43;;;;;;;0.40;75.34;97103.66;2153823;82;21377;-79
2021/01/25 05:18:38;;;;;;;105.97;49.43;;;;;;;0.36;75.39;97098.00;2152510;83;21134;-79
2021/01/25 05:21:39;;;;;;;98.40;45.37;;;;;;;0.33;75.32;97104.34;2152872;82;21261;-79
2021/01/25 05:24:40;;;;;;;108.53;48.53;;;;;;;0.30;75.32;97104.27;2153826;82;21325;-80
2021/01/25 05:27:41;;;;;;;109.27;48.63;;;;;;;0.26;75.41;97097.33;2153816;82;21134;-80
2021/01/25 05:30:42;;;;;;;109.00;48.40;;;;;;;0.26;75.36;97103.33;2153134;82;21118;-79
2021/01/25 05:33:43;;;;;;;108.47;49.60;;;;;;;0.24;75.37;97092.58;2153207;82;22000;-79
2021/01/25 05:36:45;;;;;;;123.13;58.10;;;;;;;0.22;75.36;97099.37;2153388;82;21980;-79
2021/01/25 05:39:46;;;;;;;131.13;57.70;;;;;;;0.22;75.32;97099.37;2153879;82;21130;-77
2021/01/25 05:42:47;;;;;;;141.80;66.63;;;;;;;0.22;75.44;97102.80;2154320;82;21131;-80
2021/01/25 05:45:48;;;;;;;141.97;65.90;;;;;;;0.22;75.36;97105.37;2153589;83;21333;-84
2021/01/25 05:48:49;;;;;;;130.27;58.30;;;;;;;0.25;77.52;97103.29;2153680;82;21126;-81
2021/01/25 05:51:50;;;;;;;124.27;56.90;;;;;;;0.99;76.15;97106.72;2153250;82;21261;-79
2021/01/25 05:54:52;;;;;;;118.93;56.27;;;;;;;0.84;75.01;97114.06;2153329;82;21099;-81
2021/01/25 05:57:53;;;;;;;95.30;46.20;;;;;;;0.70;74.75;97109.03;2152516;82;21532;-80
2021/01/25 06:00:54;;;;;;;90.23;43.27;;;;;;;0.56;74.65;97104.45;2152583;83;21225;-80
2021/01/25 06:03:55;;;;;;;87.67;42.80;;;;;;;0.47;74.81;97113.65;2153107;83;21627;-81
2021/01/25 06:06:56;;;;;;;88.63;43.17;;;;;;;0.40;74.88;97112.64;2152486;83;21599;-78
2021/01/25 06:09:58;;;;;;;81.87;39.83;;;;;;;0.36;75.07;97109.55;2153408;82;21261;-77
2021/01/25 06:12:59;;;;;;;91.07;43.60;;;;;;;0.34;75.01;97116.34;2152883;82;21245;-77
2021/01/25 06:16:00;;;;;;;74.07;38.80;;;;;;;0.34;75.12;97123.17;2153335;82;21253;-78
2021/01/25 06:19:01;;;;;;;68.13;35.73;;;;;;;0.33;75.18;97121.02;2152966;82;21135;-79
2021/01/25 06:22:02;;;;;;;65.00;34.03;;;;;;;0.31;75.13;97117.14;2153167;82;21153;-77
2021/01/25 06:25:03;;;;;;;55.50;27.43;;;;;;;0.31;75.25;97119.70;2152860;82;21293;-78
2021/01/25 06:28:05;;;;;;;52.27;26.50;;;;;;;0.30;75.12;97115.81;2152246;82;21290;-78
2021/01/25 06:31:06;;;;;;;49.60;26.50;;;;;;;0.29;75.12;97124.34;2151541;82;21599;-77
2021/01/25 06:34:07;;;;;;;47.10;24.57;;;;;;;0.24;75.10;97125.52;2152081;82;21161;-78
2021/01/25 06:37:08;;;;;;;48.43;24.97;;;;;;;0.22;75.20;97128.88;2152521;82;21257;-79
2021/01/25 06:40:09;;;;;;;44.33;25.03;;;;;;;0.18;75.39;97120.23;2152292;82;21616;-79
2021/01/25 06:43:11;;;;;;;45.63;24.50;;;;;;;0.18;75.26;97119.37;2152311;82;21237;-78
2021/01/25 06:46:12;;;;;;;47.47;25.37;;;;;;;0.16;75.23;97127.45;2152271;82;21142;-77
2021/01/25 06:49:13;;;;;;;53.57;26.80;;;;;;;0.15;75.38;97127.86;2151953;82;21134;-78
2021/01/25 06:52:14;;;;;;;49.80;26.43;;;;;;;0.14;75.29;97122.69;2152823;82;21238;-78
2021/01/25 06:55:15;;;;;;;62.90;31.80;;;;;;;0.11;75.41;97129.89;2152404;82;21844;-77
2021/01/25 06:58:16;;;;;;;61.70;33.03;;;;;;;0.06;75.39;97135.74;2148150;82;21277;-77
2021/01/25 07:01:17;;;;;;;65.27;31.40;;;;;;;0.04;75.44;97145.09;2146934;82;21123;-77
2021/01/25 07:04:18;;;;;;;58.53;30.73;;;;;;;0.03;75.57;97144.64;2146832;82;21450;-77
2021/01/25 07:07:20;;;;;;;57.30;30.93;;;;;;;0.01;75.61;97145.02;2146681;83;21909;-76
2021/01/25 07:10:21;;;;;;;57.47;31.13;;;;;;;-0.02;75.69;97146.64;2146842;82;21253;-79
2021/01/25 07:13:22;;;;;;;58.10;31.23;;;;;;;-0.02;75.65;97144.08;2147385;82;21241;-77
2021/01/25 07:16:23;;;;;;;52.40;28.70;;;;;;;-0.03;75.78;97150.03;2147523;83;21532;-78
2021/01/25 07:19:24;;;;;;;52.83;29.77;;;;;;;0.02;75.96;97154.45;2147370;82;21135;-77
2021/01/25 07:22:25;;;;;;;58.70;31.27;;;;;;;0.07;75.92;97154.15;2147531;82;21155;-77
2021/01/25 07:25:26;;;;;;;46.47;25.70;;;;;;;0.12;75.97;97160.27;2146729;82;21320;-78
2021/01/25 07:28:27;;;;;;;52.23;29.07;;;;;;;0.15;75.87;97161.22;2147105;82;21619;-79
2021/01/25 07:31:29;;;;;;;48.33;26.57;;;;;;;0.20;75.76;97157.48;2146826;82;21261;-78
2021/01/25 07:34:31;;;;;;;36.10;22.57;;;;;;;0.21;75.70;97152.39;2147286;82;21245;-78
2021/01/25 07:37:32;;;;;;;40.33;24.37;;;;;;;0.19;75.61;97146.34;2147369;82;21249;-77
2021/01/25 07:40:33;;;;;;;41.43;24.90;;;;;;;0.21;75.89;97148.95;2145660;83;21258;-78
2021/01/25 07:43:34;;;;;;;42.60;26.53;;;;;;;0.21;75.81;97153.67;2145883;82;21155;-78
2021/01/25 07:46:36;;;;;;;42.90;25.80;;;;;;;0.20;75.88;97144.66;2147295;83;21344;-78
2021/01/25 07:49:37;;;;;;;42.07;24.50;;;;;;;0.22;76.05;97145.55;2146636;82;21925;-78
2021/01/25 07:52:38;;;;;;;46.90;28.77;;;;;;;0.22;76.02;97140.42;2147008;83;21261;-77
2021/01/25 07:55:39;;;;;;;41.13;25.87;;;;;;;0.18;76.15;97146.31;2147242;82;21516;-78
2021/01/25 07:58:40;;;;;;;44.63;26.57;;;;;;;0.17;76.33;97142.01;2150997;82;21273;-78
2021/01/25 08:01:41;;;;;;;47.73;26.73;;;;;;;0.20;76.33;97142.95;2153345;82;21119;-78
2021/01/25 08:04:43;;;;;;;44.33;27.27;;;;;;;0.20;76.43;97139.52;2153301;82;21289;-77
2021/01/25 08:07:44;;;;;;;46.43;26.43;;;;;;;0.15;76.53;97139.81;2153157;83;21257;-77
2021/01/25 08:10:45;;;;;;;58.77;33.10;;;;;;;0.12;76.67;97145.74;2152637;82;21121;-76
2021/01/25 08:13:47;;;;;;;45.40;27.63;;;;;;;0.14;76.71;97150.91;2152450;82;21249;-78
2021/01/25 08:16:48;;;;;;;52.20;28.80;;;;;;;0.17;76.80;97166.38;2153495;82;21257;-78
2021/01/25 08:19:49;;;;;;;69.67;32.40;;;;;;;0.20;76.78;97174.16;2153497;82;21253;-77
2021/01/25 08:22:51;;;;;;;45.53;26.83;;;;;;;0.20;76.63;97175.44;2154041;82;21276;-78
2021/01/25 08:25:52;;;;;;;42.63;26.83;;;;;;;0.22;76.64;97164.39;2153543;82;21356;-78
2021/01/25 08:28:53;;;;;;;49.57;27.93;;;;;;;0.29;76.75;97170.54;2153993;82;21895;-79
2021/01/25 08:31:54;;;;;;;46.27;27.33;;;;;;;0.29;76.75;97164.13;2153877;82;21249;-78
2021/01/25 08:34:55;;;;;;;42.37;24.93;;;;;;;0.29;76.72;97160.27;2152218;82;21269;-78
2021/01/25 08:37:56;;;;;;;55.10;28.07;;;;;;;0.29;76.60;97158.99;2153357;82;21261;-78
2021/01/25 08:40:57;;;;;;;57.50;30.87;;;;;;;0.29;76.72;97162.42;2153094;82;21123;-78
2021/01/25 08:43:59;;;;;;;56.60;33.17;;;;;;;0.31;76.80;97159.48;2153087;82;21261;-78
2021/01/25 08:47:01;;;;;;;55.00;31.80;;;;;;;0.33;76.98;97156.95;2152969;83;21321;-78
2021/01/25 08:50:02;;;;;;;50.03;30.57;;;;;;;0.36;76.71;97161.30;2152969;82;21370;-79
2021/01/25 08:53:03;;;;;;;49.87;29.80;;;;;;;0.37;76.86;97171.59;2153323;82;21282;-78
2021/01/25 08:56:04;;;;;;;48.23;28.13;;;;;;;0.37;76.95;97172.88;2153629;82;21154;-80
2021/01/25 08:59:05;;;;;;;46.50;29.27;;;;;;;0.75;83.55;97173.80;2152966;82;21304;-78
2021/01/25 09:02:06;;;;;;;45.53;29.20;;;;;;;1.36;76.43;97170.04;2152061;82;21256;-78
2021/01/25 09:05:07;;;;;;;49.60;29.57;;;;;;;1.15;75.66;97171.73;2153082;82;21142;-77
2021/01/25 09:08:08;;;;;;;81.27;49.97;;;;;;;0.96;75.67;97177.30;2152434;82;21142;-79
2021/01/25 09:11:09;;;;;;;51.83;29.17;;;;;;;0.81;75.79;97175.64;2152818;83;21288;-78
2021/01/25 09:14:11;;;;;;;54.00;29.10;;;;;;;0.71;76.07;97168.55;2156912;82;21122;-79
2021/01/25 09:17:12;;;;;;;62.63;32.23;;;;;;;0.71;76.23;97180.11;2156627;82;21699;-79
2021/01/25 09:20:13;;;;;;;49.97;29.90;;;;;;;0.68;76.29;97190.31;2155754;82;21174;-80
2021/01/25 09:23:17;;;;;;;56.60;31.93;;;;;;;0.64;76.30;97186.39;2154208;82;21263;-79
2021/01/25 09:26:18;;;;;;;55.20;32.07;;;;;;;0.58;76.42;97183.67;2154076;82;21312;-79
2021/01/25 09:29:19;;;;;;;64.37;35.50;;;;;;;0.52;76.69;97181.37;2154399;82;21261;-79
2021/01/25 09:32:21;;;;;;;62.43;33.33;;;;;;;0.49;76.80;97187.72;2154541;83;21262;-79
2021/01/25 09:35:22;;;;;;;60.53;34.37;;;;;;;0.46;76.92;97182.09;2153148;82;21241;-79
2021/01/25 09:38:23;;;;;;;65.23;36.63;;;;;;;0.45;77.16;97182.92;2151997;82;21269;-79
2021/01/25 09:41:24;;;;;;;61.33;38.00;;;;;;;0.42;77.18;97180.28;2153033;82;21246;-80
2021/01/25 09:44:25;;;;;;;64.10;36.27;;;;;;;0.40;77.44;97181.94;2152863;82;21248;-78
2021/01/25 09:47:27;;;;;;;64.57;37.37;;;;;;;0.40;77.42;97179.38;2152151;82;21277;-77
2021/01/25 09:50:28;;;;;;;61.93;35.20;;;;;;;0.45;77.45;97174.35;2152228;82;21269;-77
2021/01/25 09:53:29;;;;;;;62.10;35.53;;;;;;;0.46;77.44;97175.67;2152409;82;21595;-78
2021/01/25 09:56:30;;;;;;;69.13;38.40;;;;;;;0.47;77.47;97169.70;2152770;82;21242;-77
2021/01/25 09:59:31;;;;;;;68.70;38.37;;;;;;;0.48;77.42;97174.02;2153028;82;21290;-79
2021/01/25 10:02:32;;;;;;;62.27;34.90;;;;;;;0.47;77.58;97172.69;2152948;82;21241;-79
2021/01/25 10:05:33;;;;;;;64.57;36.33;;;;;;;0.48;77.52;97172.73;2152953;82;21146;-79
2021/01/25 10:08:36;;;;;;;72.10;39.20;;;;;;;0.45;77.77;97171.38;2152897;83;21264;-78
2021/01/25 10:11:37;;;;;;;64.40;36.60;;;;;;;0.43;77.68;97175.59;2153493;83;21261;-79
2021/01/25 10:14:38;;;;;;;55.07;33.07;;;;;;;0.47;77.82;97172.69;2152684;82;21290;-79
2021/01/25 10:17:39;;;;;;;65.13;36.07;;;;;;;0.45;77.74;97173.07;2152959;82;21264;-79
2021/01/25 10:20:43;;;;;;;147.73;76.20;;;;;;;0.42;77.82;97171.30;2153030;82;21245;-79
2021/01/25 10:23:43;;;;;;;65.43;35.80;;;;;;;0.44;77.85;97167.48;2153827;82;21132;-78
2021/01/25 10:26:44;;;;;;;72.90;35.37;;;;;;;0.45;77.94;97179.07;2153731;82;21519;-79
2021/01/25 10:29:45;;;;;;;148.93;73.33;;;;;;;0.47;77.91;97170.12;2153225;82;21635;-78
2021/01/25 10:32:47;;;;;;;48.90;30.53;;;;;;;0.44;77.95;97177.34;2154200;82;21115;-79
2021/01/25 10:35:48;;;;;;;54.57;34.37;;;;;;;0.46;77.96;97179.52;2154100;82;21250;-79
2021/01/25 10:38:49;;;;;;;48.47;29.90;;;;;;;0.55;78.00;97173.74;2153851;82;21256;-80
2021/01/25 10:41:50;;;;;;;55.17;30.97;;;;;;;0.58;77.66;97177.25;2153208;82;21111;-79
2021/01/25 10:44:54;;;;;;;51.43;29.73;;;;;;;0.63;77.71;97184.65;2153803;82;21282;-79
2021/01/25 10:47:55;;;;;;;39.20;25.07;;;;;;;0.71;77.68;97176.26;2153647;82;21532;-79
2021/01/25 10:50:56;;;;;;;39.07;24.13;;;;;;;0.71;77.40;97173.27;2154122;82;21162;-78
2021/01/25 10:53:58;;;;;;;45.70;25.57;;;;;;;0.69;77.45;97173.66;2153437;82;21285;-78
2021/01/25 10:56:59;;;;;;;35.60;21.30;;;;;;;0.67;77.49;97175.31;2153396;83;21258;-78
2021/01/25 11:00:00;;;;;;;36.50;21.93;;;;;;;0.64;77.69;97177.81;2153313;83;21281;-79
2021/01/25 11:03:01;;;;;;;37.73;21.43;;;;;;;0.59;77.91;97178.98;2153120;82;21267;-78
2021/01/25 11:06:02;;;;;;;36.23;17.67;;;;;;;0.58;77.75;97180.23;2151988;82;21292;-81
2021/01/25 11:09:03;;;;;;;27.87;18.23;;;;;;;0.55;77.96;97182.31;2152152;82;21544;-78
2021/01/25 11:12:05;;;;;;;30.97;19.03;;;;;;;0.51;78.28;97170.66;2152567;83;21198;-77
2021/01/25 11:15:06;;;;;;;32.40;19.83;;;;;;;0.50;78.35;97177.91;2153469;82;21095;-80
2021/01/25 11:18:09;;;;;;;34.53;22.03;;;;;;;0.46;78.44;97174.80;2152588;83;21260;-79
2021/01/25 11:21:10;;;;;;;30.07;19.90;;;;;;;0.41;78.52;97177.67;2153078;82;21244;-78
2021/01/25 11:24:11;;;;;;;36.20;21.30;;;;;;;0.40;78.47;97175.94;2153150;82;21261;-77
2021/01/25 11:27:12;;;;;;;36.80;21.63;;;;;;;0.40;78.52;97180.66;2153113;83;21503;-79
2021/01/25 11:30:14;;;;;;;38.03;21.33;;;;;;;0.43;78.48;97174.31;2153075;83;21277;-79
2021/01/25 11:33:15;;;;;;;42.47;24.20;;;;;;;0.47;78.33;97186.81;2153523;82;21244;-81
2021/01/25 11:36:16;;;;;;;35.00;21.80;;;;;;;0.51;78.24;97177.94;2153906;82;21305;-79
2021/01/25 11:39:17;;;;;;;42.23;24.10;;;;;;;0.55;78.24;97172.05;2154399;83;21125;-79
2021/01/25 11:42:18;;;;;;;38.10;21.63;;;;;;;0.59;78.18;97173.85;2153881;83;21254;-80
2021/01/25 11:45:19;;;;;;;40.20;23.23;;;;;;;0.61;78.08;97179.03;2152677;82;21292;-79
2021/01/25 11:48:20;;;;;;;40.57;23.77;;;;;;;0.60;78.14;97182.01;2153394;82;21551;-79
2021/01/25 11:51:21;;;;;;;53.03;28.40;;;;;;;0.56;78.12;97179.33;2154209;82;21285;-79
2021/01/25 11:54:23;;;;;;;47.87;28.33;;;;;;;0.55;78.31;97178.46;2153092;82;21131;-78
2021/01/25 11:57:24;;;;;;;43.77;24.77;;;;;;;0.57;78.47;97181.06;2153912;82;21245;-80
2021/01/25 12:00:25;;;;;;;47.87;25.67;;;;;;;0.54;78.29;97183.14;2153858;82;21876;-79
2021/01/25 12:03:26;;;;;;;50.50;29.00;;;;;;;0.51;78.48;97181.79;2153210;82;21250;-79
2021/01/25 12:06:27;;;;;;;43.13;24.93;;;;;;;0.52;78.66;97185.22;2153147;82;21289;-78
2021/01/25 12:09:28;;;;;;;44.20;25.53;;;;;;;0.50;78.78;97182.62;2153018;82;21265;-79
2021/01/25 12:12:29;;;;;;;45.63;27.33;;;;;;;0.43;79.26;97192.28;2152520;83;21262;-78
2021/01/25 12:15:31;;;;;;;44.47;26.07;;;;;;;0.38;79.67;97186.17;2153495;82;21241;-79
2021/01/25 12:18:32;;;;;;;53.43;30.83;;;;;;;0.37;79.74;97189.56;2153789;83;21272;-79
2021/01/25 12:21:33;;;;;;;39.10;23.57;;;;;;;0.35;79.93;97189.94;2154125;82;21261;-79
2021/01/25 12:24:34;;;;;;;36.27;22.37;;;;;;;0.34;80.00;97198.47;2152915;83;21893;-79
2021/01/25 12:27:35;;;;;;;40.80;24.37;;;;;;;0.29;80.11;97199.64;2153053;82;21253;-79
2021/01/25 12:30:36;;;;;;;39.63;24.53;;;;;;;0.28;80.33;97203.45;2153049;82;21269;-79
2021/01/25 12:33:37;;;;;;;49.40;29.80;;;;;;;0.30;80.43;97206.92;2152822;82;21582;-79
2021/01/25 12:36:39;;;;;;;38.27;25.37;;;;;;;0.31;80.33;97203.53;2152739;83;21261;-78
2021/01/25 12:39:40;;;;;;;40.97;23.97;;;;;;;0.31;80.59;97210.81;2152421;83;21260;-79
2021/01/25 12:42:41;;;;;;;38.20;24.27;;;;;;;0.33;80.39;97208.28;2152192;82;21099;-79
2021/01/25 12:45:42;;;;;;;37.67;24.37;;;;;;;0.36;80.15;97214.78;2152986;82;21286;-79
2021/01/25 12:48:43;;;;;;;35.10;23.77;;;;;;;0.39;80.25;97216.14;2153508;82;21599;-79
2021/01/25 12:51:44;;;;;;;38.17;24.27;;;;;;;0.42;80.09;97214.06;2152668;82;21241;-79
2021/01/25 12:54:45;;;;;;;35.47;22.50;;;;;;;0.45;79.99;97211.58;2152368;82;21252;-79
2021/01/25 12:57:46;;;;;;;33.73;22.80;;;;;;;0.46;79.81;97210.33;2152487;82;21250;-80
2021/01/25 13:00:48;;;;;;;32.13;19.77;;;;;;;0.51;79.89;97213.02;2151583;82;21442;-80
2021/01/25 13:03:49;;;;;;;32.87;22.37;;;;;;;0.51;79.77;97215.58;2150834;82;21249;-81
2021/01/25 13:06:50;;;;;;;43.77;25.57;;;;;;;0.47;79.62;97208.62;2150918;83;21285;-79
2021/01/25 13:09:51;;;;;;;36.87;23.37;;;;;;;0.47;79.67;97210.78;2151007;82;21918;-78
2021/01/25 13:12:52;;;;;;;44.63;28.57;;;;;;;0.43;79.70;97208.10;2152278;82;21254;-77
2021/01/25 13:15:53;;;;;;;51.13;29.83;;;;;;;0.41;79.97;97218.33;2152330;82;21277;-78
2021/01/25 13:18:55;;;;;;;40.00;24.87;;;;;;;0.39;80.32;97211.00;2152997;82;21575;-78
2021/01/25 13:21:56;;;;;;;51.17;30.33;;;;;;;0.36;80.18;97227.61;2152461;82;21583;-80
2021/01/25 13:24:58;;;;;;;44.67;27.53;;;;;;;0.35;80.27;97223.31;2152446;83;21293;-78
2021/01/25 13:27:59;;;;;;;46.57;27.83;;;;;;;0.31;80.41;97231.34;2152507;82;21273;-81
2021/01/25 13:31:00;;;;;;;48.00;30.10;;;;;;;0.29;80.35;97238.55;2153088;82;21613;-79
2021/01/25 13:34:01;;;;;;;45.60;28.37;;;;;;;0.27;80.47;97242.77;2151795;82;21297;-79
2021/01/25 13:37:02;;;;;;;45.50;28.80;;;;;;;0.26;80.37;97259.00;2152272;82;21252;-80
2021/01/25 13:40:03;;;;;;;40.93;25.27;;;;;;;0.25;80.56;97263.68;2153156;82;21595;-73
2021/01/25 13:43:05;;;;;;;35.30;22.70;;;;;;;0.24;80.35;97267.08;2153294;82;21261;-80
2021/01/25 13:46:06;;;;;;;43.07;26.13;;;;;;;0.24;80.14;97270.92;2153353;82;21601;-80
2021/01/25 13:49:07;;;;;;;40.47;25.27;;;;;;;0.26;80.08;97271.83;2153353;83;21131;-79
2021/01/25 13:52:11;;;;;;;48.63;27.73;;;;;;;0.28;79.95;97276.17;2153436;82;21456;-80
2021/01/25 13:55:11;;;;;;;33.07;21.70;;;;;;;0.31;79.72;97281.80;2153370;82;21246;-78
2021/01/25 13:58:12;;;;;;;30.93;21.60;;;;;;;0.31;79.66;97280.52;2152729;82;21531;-78
2021/01/25 14:01:13;;;;;;;32.40;20.17;;;;;;;0.29;79.81;97286.03;2153653;82;21244;-79